Miguel Oliver — ECLX — position and weather

sailwx.info

Track history (hours):
 
Tides and Currents Weather Stations Pressure Air Temp Water Temp Dewpoint Dewpoint Depression Visibility Wind Speed Wind Dir Waves Ship Positions

Oceanographic research ship Miguel Oliver (Spain)

Ship's website: http://www.mapa.es/es/pesca/pags/miguel_web/index.htm

Last reported at 2015-May-28 00:04 UTC. Time now 2015-May-28 03:58 UTC.
Position N 40°24' E 000°30'.

Length 70 m; draft 4.8 m.

Type: Other ship. MMSI: 225322000.

Date/timePositionNaut miles runAvg speedWind from/ knotsBaromVisibWave heightAir tempDewpointWater temp
2015-May-28 00:04N 40°24' E 000°30'7 0.9
2015-May-27 16:04N 40°18' E 000°35'4 6.7
2015-May-27 15:26N 40°15' E 000°39'11 5.3
2015-May-27 13:15N 40°07' E 000°50'710.4
2015-May-27 12:32N 40°04' E 000°59'2 2.3
2015-May-27 11:33N 40°02' E 000°58'3 2.8
2015-May-27 10:27N 40°02' E 000°54'2 2.1
2015-May-27 09:32N 40°01' E 000°52'27 2.1
2015-May-26 20:32N 40°07' E 000°17'1 0.7
2015-May-26 19:33N 40°06' E 000°17'1 0.8
2015-May-26 18:31N 40°06' E 000°16'1 1.0
2015-May-26 17:17N 40°06' E 000°14'1 1.3
2015-May-26 16:17N 40°05' E 000°16'13 0.4
2015-May-25 08:26N 39°58' E 000°01'8 1.1
2015-May-25 00:32N 39°51' E 000°06'1 0.6
2015-May-24 23:25N 39°51' E 000°06'18 0.7
2015-May-23 19:12N 39°36' W 000°08'1 0.8
2015-May-23 17:33N 39°35' W 000°09'3 2.4
2015-May-23 16:28N 39°33' W 000°06'  
2015-May-19 00:12N 38°47' E 000°49'10 3.5
2015-May-18 21:25N 38°54' E 000°58'  
Track history (hours):
 
Tides and Currents Weather Stations Pressure Air Temp Water Temp Dewpoint Dewpoint Depression Visibility Wind Speed Wind Dir Waves Ship Positions

Oceanographic research ship Miguel Oliver (Spain)

Ship's website: http://www.mapa.es/es/pesca/pags/miguel_web/index.htm

Last reported at 2015-May-28 00:04 UTC. Time now 2015-May-28 03:58 UTC.
Position N 40°24' E 000°30'.

Length 70 m; draft 4.8 m.

Type: Other ship. MMSI: 225322000.

Date/timePositionNaut miles runAvg speedWind from/ knotsBaromVisibWave heightAir tempDewpointWater temp
2015-May-28 00:04N 40°24' E 000°30'7 0.9
2015-May-27 16:04N 40°18' E 000°35'4 6.7
2015-May-27 15:26N 40°15' E 000°39'11 5.3
2015-May-27 13:15N 40°07' E 000°50'710.4
2015-May-27 12:32N 40°04' E 000°59'2 2.3
2015-May-27 11:33N 40°02' E 000°58'3 2.8
2015-May-27 10:27N 40°02' E 000°54'2 2.1
2015-May-27 09:32N 40°01' E 000°52'27 2.1
2015-May-26 20:32N 40°07' E 000°17'1 0.7
2015-May-26 19:33N 40°06' E 000°17'1 0.8
2015-May-26 18:31N 40°06' E 000°16'1 1.0
2015-May-26 17:17N 40°06' E 000°14'1 1.3
2015-May-26 16:17N 40°05' E 000°16'13 0.4
2015-May-25 08:26N 39°58' E 000°01'8 1.1
2015-May-25 00:32N 39°51' E 000°06'1 0.6
2015-May-24 23:25N 39°51' E 000°06'18 0.7
2015-May-23 19:12N 39°36' W 000°08'1 0.8
2015-May-23 17:33N 39°35' W 000°09'3 2.4
2015-May-23 16:28N 39°33' W 000°06'  
2015-May-19 00:12N 38°47' E 000°49'10 3.5
2015-May-18 21:25N 38°54' E 000°58'  

Dump ship's entire track history